Time;durP1;ratioP1;P1;durP2;ratioP2;P2;SDS_P1;SDS_P2;PMS_P1;PMS_P2;Temp;Humidity;BMP_temperature;BMP_pressure;BME280_temperature;BME280_humidity;BME280_pressure;Samples;Min_cycle;Max_cycle;Signal;HPM_P1;HPM_P2
2022/09/22 00:01:55;;;;;;;10.48;4.75;;;;;;;6.20;100.00;102468.06;5041456;28;20037;-70
2022/09/22 00:04:20;;;;;;;7.05;4.68;;;;;;;6.13;100.00;102469.09;5056340;28;20113;-70
2022/09/22 00:06:47;;;;;;;6.18;4.40;;;;;;;6.11;100.00;102470.88;5062429;28;20110;-71
2022/09/22 00:09:16;;;;;;;13.52;4.15;;;;;;;6.08;100.00;102468.31;5062193;28;20032;-70
2022/09/22 00:11:46;;;;;;;7.05;4.00;;;;;;;5.99;100.00;102466.72;5062427;28;20048;-70
2022/09/22 00:14:14;;;;;;;5.38;4.00;;;;;;;5.82;100.00;102469.59;5057000;28;20132;-71
2022/09/22 00:16:54;;;;;;;9.82;3.85;;;;;;;5.78;100.00;102470.56;5061932;28;20167;-71
2022/09/22 00:19:27;;;;;;;5.28;2.85;;;;;;;5.75;100.00;102462.69;5052780;28;20153;-70
2022/09/22 00:21:53;;;;;;;8.48;3.20;;;;;;;5.69;100.00;102463.66;5056293;28;20124;-70
2022/09/22 00:24:23;;;;;;;5.63;3.05;;;;;;;5.74;100.00;102460.06;5060698;28;20544;-70
2022/09/22 00:26:50;;;;;;;3.85;3.05;;;;;;;5.79;100.00;102461.72;5060943;28;20033;-70
2022/09/22 00:29:16;;;;;;;7.18;4.30;;;;;;;5.77;100.00;102458.22;5059869;28;20135;-70
2022/09/22 00:31:42;;;;;;;10.85;4.63;;;;;;;5.72;100.00;102452.13;5060233;28;20115;-70
2022/09/22 00:34:14;;;;;;;6.30;4.15;;;;;;;5.72;100.00;102460.06;5061073;28;20158;-70
2022/09/22 00:36:39;;;;;;;6.32;4.70;;;;;;;5.78;100.00;102462.63;5025158;28;20051;-70
2022/09/22 00:39:05;;;;;;;6.63;4.68;;;;;;;5.75;100.00;102459.16;5038555;28;20067;-69
2022/09/22 00:41:35;;;;;;;11.68;4.80;;;;;;;5.71;100.00;102459.19;5058590;28;20032;-70
2022/09/22 00:44:25;;;;;;;7.93;4.57;;;;;;;5.70;100.00;102460.09;5059777;28;20127;-70
2022/09/22 00:47:13;;;;;;;6.38;4.28;;;;;;;5.67;100.00;102460.19;5058641;28;20072;-69
2022/09/22 00:49:47;;;;;;;8.13;3.95;;;;;;;5.57;100.00;102455.94;5055823;28;20036;-71
2022/09/22 00:52:24;;;;;;;4.90;3.15;;;;;;;5.48;100.00;102447.28;5053294;28;20039;-70
2022/09/22 00:54:53;;;;;;;5.80;3.35;;;;;;;5.43;100.00;102453.50;5059815;28;20143;-70
2022/09/22 00:57:27;;;;;;;8.38;3.78;;;;;;;5.48;100.00;102449.91;5058080;28;20404;-70
2022/09/22 00:59:54;;;;;;;4.60;3.70;;;;;;;5.52;100.00;102441.88;5060226;28;20938;-70
2022/09/22 01:02:22;;;;;;;6.78;3.75;;;;;;;5.53;100.00;102448.94;5055832;28;20070;-70
2022/09/22 01:04:50;;;;;;;7.28;3.83;;;;;;;5.57;100.00;102448.00;5060115;28;20123;-71
2022/09/22 01:07:21;;;;;;;6.80;3.63;;;;;;;5.43;100.00;102437.63;5042544;28;20109;-71
2022/09/22 01:09:47;;;;;;;3.15;2.45;;;;;;;5.32;100.00;102438.69;5060734;28;20558;-70
2022/09/22 01:12:13;;;;;;;4.03;3.28;;;;;;;5.34;100.00;102435.13;5055494;28;20087;-70
2022/09/22 01:15:10;;;;;;;8.60;3.55;;;;;;;5.16;100.00;102433.63;5042815;28;20123;-70
2022/09/22 01:18:09;;;;;;;5.63;3.50;;;;;;;5.27;100.00;102429.94;5061025;28;20032;-70
2022/09/22 01:20:41;;;;;;;6.30;3.55;;;;;;;5.29;100.00;102426.41;5039592;28;20119;-70
2022/09/22 01:23:30;;;;;;;6.47;3.13;;;;;;;5.31;100.00;102416.66;5061307;28;20587;-70
2022/09/22 01:26:31;;;;;;;5.78;3.92;;;;;;;5.30;100.00;102420.22;5030281;28;20561;-70
2022/09/22 01:29:23;;;;;;;11.70;4.25;;;;;;;5.23;100.00;102415.06;5056915;28;20048;-69
2022/09/22 01:31:56;;;;;;;8.27;4.57;;;;;;;5.17;100.00;102414.25;5050096;28;20512;-70
2022/09/22 01:34:29;;;;;;;6.57;4.72;;;;;;;5.29;100.00;102417.59;5056644;28;20063;-70
2022/09/22 01:37:04;;;;;;;8.98;5.28;;;;;;;5.38;100.00;102401.59;5050363;28;20041;-70
2022/09/22 01:39:40;;;;;;;12.13;6.18;;;;;;;5.32;100.00;102409.59;5059568;28;20062;-71
2022/09/22 01:42:10;;;;;;;4.30;3.35;;;;;;;5.06;100.00;102407.38;5043413;28;20497;-69
2022/09/22 01:44:44;;;;;;;6.10;4.15;;;;;;;4.82;100.00;102401.56;5036587;28;20060;-70
2022/09/22 01:47:16;;;;;;;6.00;4.10;;;;;;;4.95;100.00;102410.16;5057873;28;20102;-70
2022/09/22 01:49:48;;;;;;;12.30;5.30;;;;;;;5.10;100.00;102406.44;5057020;28;20051;-70
2022/09/22 01:52:34;;;;;;;5.75;4.43;;;;;;;4.90;100.00;102401.44;5058343;28;20032;-70
2022/09/22 01:55:18;;;;;;;4.43;3.80;;;;;;;4.88;100.00;102401.47;5052962;28;20053;-70
2022/09/22 01:58:22;;;;;;;5.43;4.20;;;;;;;5.12;100.00;102394.94;5061469;28;20028;-70
2022/09/22 02:00:59;;;;;;;7.13;4.38;;;;;;;4.90;100.00;102399.66;4980120;28;20050;-70
2022/09/22 02:03:42;;;;;;;5.25;4.03;;;;;;;4.83;100.00;102384.81;4965348;28;20513;-71
2022/09/22 02:06:19;;;;;;;6.03;3.88;;;;;;;4.93;100.00;102391.69;4979743;28;20042;-71
2022/09/22 02:08:58;;;;;;;5.82;3.83;;;;;;;4.88;100.00;102384.75;4979260;28;20078;-70
2022/09/22 02:11:23;;;;;;;8.02;4.07;;;;;;;4.84;100.00;102386.53;4980533;28;20949;-71
2022/09/22 02:13:49;;;;;;;5.28;3.90;;;;;;;4.89;100.00;102389.13;4980648;28;20054;-71
2022/09/22 02:16:18;;;;;;;4.80;3.42;;;;;;;4.82;100.00;102388.34;4975827;28;20100;-72
2022/09/22 02:18:47;;;;;;;5.40;3.67;;;;;;;4.76;100.00;102376.97;4979587;28;20128;-71
2022/09/22 02:21:13;;;;;;;4.72;3.78;;;;;;;4.81;100.00;102377.78;4980216;28;20081;-70
2022/09/22 02:23:40;;;;;;;10.77;3.60;;;;;;;4.72;100.00;102372.63;4977793;28;20058;-70
2022/09/22 02:26:07;;;;;;;5.22;3.90;;;;;;;4.83;100.00;102376.88;4979154;28;20088;-70
2022/09/22 02:28:36;;;;;;;5.03;4.22;;;;;;;4.91;100.00;102374.09;4979185;28;20042;-71
2022/09/22 02:31:04;;;;;;;5.90;4.50;;;;;;;4.93;100.00;102367.91;4978368;28;20085;-72
2022/09/22 02:33:33;;;;;;;7.80;4.82;;;;;;;4.96;100.00;102361.69;4977743;28;20052;-70
2022/09/22 02:36:25;;;;;;;11.25;5.50;;;;;;;5.03;100.00;102375.72;4964862;28;20256;-70
2022/09/22 02:39:08;;;;;;;7.25;5.30;;;;;;;5.04;100.00;102369.53;5028445;28;20114;-71
2022/09/22 02:42:01;;;;;;;8.13;5.90;;;;;;;5.06;100.00;102370.34;5053814;28;20036;-71
2022/09/22 02:44:45;;;;;;;10.55;6.28;;;;;;;4.99;100.00;102363.44;5059406;28;20111;-70
2022/09/22 02:47:16;;;;;;;9.15;5.55;;;;;;;4.98;100.00;102367.84;5048869;28;20033;-71
2022/09/22 02:49:43;;;;;;;8.27;5.82;;;;;;;4.93;100.00;102359.97;5051436;28;20102;-71
2022/09/22 02:52:13;;;;;;;8.02;5.43;;;;;;;4.90;100.00;102364.44;5038177;28;20166;-70
2022/09/22 02:54:39;;;;;;;6.43;5.05;;;;;;;4.84;100.00;102360.13;5052639;28;20044;-70
2022/09/22 02:57:05;;;;;;;9.48;6.35;;;;;;;4.87;100.00;102364.47;5063390;28;20036;-71
2022/09/22 02:59:31;;;;;;;8.02;4.72;;;;;;;4.76;100.00;102364.63;5062331;28;20048;-71
2022/09/22 03:01:56;;;;;;;7.18;4.63;;;;;;;4.75;100.00;102367.31;5062577;28;20047;-70
2022/09/22 03:04:22;;;;;;;11.80;4.75;;;;;;;4.73;100.00;102358.53;5061913;28;20037;-70
2022/09/22 03:06:47;;;;;;;11.25;5.10;;;;;;;4.80;100.00;102362.84;5061700;28;20036;-70
2022/09/22 03:09:15;;;;;;;10.40;5.47;;;;;;;4.87;100.00;102357.44;5057088;28;20110;-71
2022/09/22 03:11:41;;;;;;;6.22;4.72;;;;;;;4.82;100.00;102358.38;5057346;28;20043;-70
2022/09/22 03:14:06;;;;;;;8.18;5.03;;;;;;;4.85;100.00;102355.69;5060361;28;20036;-71
2022/09/22 03:16:32;;;;;;;10.95;5.30;;;;;;;4.73;100.00;102354.13;5061983;28;20489;-70
2022/09/22 03:18:57;;;;;;;7.10;5.07;;;;;;;4.57;100.00;102356.13;5061029;28;20481;-71
2022/09/22 03:21:23;;;;;;;4.60;3.15;;;;;;;4.55;100.00;102357.03;5054149;28;20036;-70
2022/09/22 03:23:48;;;;;;;5.10;3.75;;;;;;;4.36;100.00;102346.69;5060399;28;20056;-71
2022/09/22 03:26:14;;;;;;;6.18;3.65;;;;;;;4.44;100.00;102349.25;5057886;28;20474;-70
2022/09/22 03:28:39;;;;;;;5.30;3.97;;;;;;;4.53;100.00;102348.25;5055784;28;20549;-70
2022/09/22 03:31:04;;;;;;;7.05;4.72;;;;;;;4.43;100.00;102344.00;5058202;28;20041;-72
2022/09/22 03:33:30;;;;;;;5.93;3.92;;;;;;;4.44;100.00;102337.81;5060879;28;20033;-71
2022/09/22 03:35:55;;;;;;;8.10;3.42;;;;;;;4.57;100.00;102342.03;5056376;28;20067;-70
2022/09/22 03:38:21;;;;;;;6.65;4.70;;;;;;;4.64;100.00;102336.63;5054916;28;20037;-71
2022/09/22 03:40:51;;;;;;;8.10;4.68;;;;;;;4.64;100.00;102335.75;5062227;28;20489;-70
2022/09/22 03:43:17;;;;;;;9.30;5.78;;;;;;;4.60;100.00;102328.78;5059756;28;20159;-72
2022/09/22 03:45:43;;;;;;;13.13;7.85;;;;;;;4.78;100.00;102331.16;5054911;28;20139;-70
2022/09/22 03:48:08;;;;;;;11.10;6.95;;;;;;;4.88;100.00;102332.75;5059185;28;20036;-70
2022/09/22 03:50:34;;;;;;;9.55;6.20;;;;;;;4.74;100.00;102334.72;5062011;28;20097;-70
2022/09/22 03:52:59;;;;;;;12.75;7.10;;;;;;;4.79;100.00;102330.25;5061653;28;20044;-71
2022/09/22 03:55:25;;;;;;;9.02;6.50;;;;;;;4.70;100.00;102329.50;5060701;28;20067;-71
2022/09/22 03:57:51;;;;;;;9.02;6.20;;;;;;;4.67;100.00;102331.31;5056860;28;20044;-71
2022/09/22 04:00:16;;;;;;;10.27;6.28;;;;;;;4.64;100.00;102330.47;5057667;28;20863;-70
2022/09/22 04:02:42;;;;;;;8.90;5.28;;;;;;;4.48;100.00;102332.47;5060032;28;20052;-71
2022/09/22 04:05:08;;;;;;;10.73;5.78;;;;;;;4.32;100.00;102331.81;5060171;28;20028;-71
2022/09/22 04:07:34;;;;;;;7.70;5.32;;;;;;;4.29;100.00;102321.28;5057031;28;20060;-71
2022/09/22 04:10:00;;;;;;;8.68;5.38;;;;;;;4.35;100.00;102326.47;5018429;28;20059;-70
2022/09/22 04:12:25;;;;;;;9.30;5.38;;;;;;;4.27;100.00;102320.44;5058904;28;20103;-70
2022/09/22 04:14:51;;;;;;;8.93;5.13;;;;;;;4.30;100.00;102317.75;5061664;28;20040;-70
2022/09/22 04:17:19;;;;;;;8.75;4.55;;;;;;;4.35;100.00;102317.69;5054933;28;20036;-71
2022/09/22 04:19:45;;;;;;;8.48;6.57;;;;;;;4.36;100.00;102320.28;5041904;28;20044;-70
2022/09/22 04:22:11;;;;;;;8.25;5.32;;;;;;;4.39;100.00;102314.09;5036714;28;20074;-71
2022/09/22 04:24:36;;;;;;;10.00;5.13;;;;;;;4.38;100.00;102320.28;5042884;28;20123;-70
2022/09/22 04:27:02;;;;;;;9.65;6.20;;;;;;;4.32;100.00;102318.63;5060107;28;20140;-70
2022/09/22 04:29:28;;;;;;;15.80;6.45;;;;;;;4.20;100.00;102318.75;5058110;28;20043;-71
2022/09/22 04:31:53;;;;;;;12.13;5.93;;;;;;;4.26;100.00;102312.53;5054401;28;20477;-71
2022/09/22 04:34:18;;;;;;;7.30;5.82;;;;;;;4.27;100.00;102312.53;5058043;28;20867;-71
2022/09/22 04:36:44;;;;;;;12.70;6.50;;;;;;;4.29;100.00;102310.72;5058713;28;20515;-70
2022/09/22 04:39:10;;;;;;;8.38;5.78;;;;;;;4.29;100.00;102310.72;5050570;28;20036;-71
2022/09/22 04:41:35;;;;;;;15.13;7.13;;;;;;;4.33;100.00;102311.56;5060457;28;20040;-70
2022/09/22 04:44:00;;;;;;;13.50;7.18;;;;;;;4.36;100.00;102314.13;5061109;28;20670;-71
2022/09/22 04:46:26;;;;;;;13.20;7.40;;;;;;;4.31;100.00;102308.06;5056649;28;20036;-70
2022/09/22 04:48:52;;;;;;;11.35;7.68;;;;;;;4.19;100.00;102303.81;5059923;28;20476;-71
2022/09/22 04:51:18;;;;;;;12.25;7.03;;;;;;;4.06;100.00;102313.66;5050895;28;20109;-71
2022/09/22 04:53:43;;;;;;;9.23;6.05;;;;;;;4.03;100.00;102308.44;5041265;28;20453;-70
2022/09/22 04:56:09;;;;;;;8.18;6.00;;;;;;;4.06;100.00;102310.13;5060420;28;20067;-71
2022/09/22 04:58:34;;;;;;;7.72;4.78;;;;;;;4.08;100.00;102305.75;5055832;28;20029;-71
2022/09/22 05:01:05;;;;;;;8.48;5.60;;;;;;;4.07;100.00;102302.22;5057201;28;20370;-71
2022/09/22 05:03:30;;;;;;;11.30;6.18;;;;;;;4.14;100.00;102306.53;5058992;28;20049;-71
2022/09/22 05:05:56;;;;;;;10.30;6.72;;;;;;;4.16;100.00;102304.72;5058274;28;20717;-69
2022/09/22 05:08:22;;;;;;;9.43;5.85;;;;;;;4.09;100.00;102315.41;5059720;28;20476;-69
2022/09/22 05:10:47;;;;;;;9.30;5.97;;;;;;;4.07;100.00;102311.91;5055397;28;20051;-70
2022/09/22 05:13:13;;;;;;;9.73;6.13;;;;;;;3.95;100.00;102314.69;5058777;28;20047;-72
2022/09/22 05:15:39;;;;;;;14.40;6.30;;;;;;;3.93;100.00;102317.34;5035378;28;20129;-71
2022/09/22 05:18:05;;;;;;;7.90;5.63;;;;;;;3.95;100.00;102317.31;5036996;28;20052;-72
2022/09/22 05:20:30;;;;;;;13.07;6.13;;;;;;;4.01;100.00;102320.75;5037608;28;20799;-70
2022/09/22 05:22:56;;;;;;;10.20;5.53;;;;;;;4.06;100.00;102316.28;5056598;28;20386;-70
2022/09/22 05:25:21;;;;;;;12.75;6.20;;;;;;;4.19;100.00;102321.44;5055232;28;20169;-70
2022/09/22 05:27:49;;;;;;;11.07;7.22;;;;;;;4.20;100.00;102317.88;5054509;28;20033;-70
2022/09/22 05:30:16;;;;;;;8.23;5.75;;;;;;;4.13;100.00;102317.97;5053062;28;20033;-71
2022/09/22 05:32:45;;;;;;;15.20;7.10;;;;;;;4.23;100.00;102315.22;5038574;28;20054;-69
2022/09/22 05:35:12;;;;;;;12.90;6.93;;;;;;;4.24;100.00;102322.25;5057932;28;20047;-71
2022/09/22 05:37:38;;;;;;;14.75;7.72;;;;;;;4.22;100.00;102319.63;5057283;28;20512;-71
2022/09/22 05:40:05;;;;;;;10.68;6.57;;;;;;;4.21;100.00;102315.22;5055518;28;20037;-71
2022/09/22 05:42:31;;;;;;;10.48;7.03;;;;;;;4.29;100.00;102313.38;5058921;28;20096;-70
2022/09/22 05:44:57;;;;;;;11.35;7.45;;;;;;;4.35;100.00;102322.97;5038409;28;20052;-70
2022/09/22 05:47:22;;;;;;;12.23;7.03;;;;;;;4.34;100.00;102321.22;5059698;28;20036;-70
2022/09/22 05:49:48;;;;;;;12.38;5.88;;;;;;;4.35;100.00;102321.19;5056883;28;20044;-71
2022/09/22 05:52:13;;;;;;;9.63;6.05;;;;;;;4.33;100.00;102314.19;5059686;28;20032;-70
2022/09/22 05:54:38;;;;;;;10.32;5.63;;;;;;;4.37;100.00;102319.41;5030588;28;20040;-71
2022/09/22 05:57:04;;;;;;;10.05;6.68;;;;;;;4.45;100.00;102323.72;5056354;28;20052;-69
2022/09/22 05:59:29;;;;;;;10.15;6.25;;;;;;;4.52;100.00;102317.44;5056039;28;20051;-71
2022/09/22 06:01:55;;;;;;;9.90;5.38;;;;;;;4.56;100.00;102321.78;5040542;28;20209;-70
2022/09/22 06:04:20;;;;;;;7.90;5.75;;;;;;;4.63;100.00;102323.47;5059946;28;20475;-71
2022/09/22 06:06:46;;;;;;;12.30;5.88;;;;;;;4.72;100.00;102319.78;5057858;28;20793;-70
2022/09/22 06:09:12;;;;;;;13.18;5.65;;;;;;;4.77;100.00;102323.22;5038997;28;20041;-70
2022/09/22 06:11:37;;;;;;;13.63;7.25;;;;;;;4.84;100.00;102323.13;5059488;28;20093;-71
2022/09/22 06:14:02;;;;;;;11.30;7.03;;;;;;;4.94;100.00;102330.00;5055347;28;20044;-71
2022/09/22 06:16:29;;;;;;;14.73;6.60;;;;;;;5.06;100.00;102328.06;5054951;28;20033;-72
2022/09/22 06:18:55;;;;;;;22.42;7.72;;;;;;;5.11;100.00;102321.78;5056338;28;20111;-71
2022/09/22 06:21:20;;;;;;;17.10;6.35;;;;;;;5.25;100.00;102325.97;5038311;28;20102;-71
2022/09/22 06:23:46;;;;;;;25.05;7.50;;;;;;;5.32;100.00;102327.59;5060844;28;20036;-70
2022/09/22 06:26:11;;;;;;;12.30;7.47;;;;;;;5.34;100.00;102329.34;5063003;28;20043;-70
2022/09/22 06:28:36;;;;;;;18.08;7.38;;;;;;;5.55;100.00;102327.19;5062955;28;20041;-68
2022/09/22 06:31:02;;;;;;;17.48;8.20;;;;;;;5.81;100.00;102318.75;5061273;28;20384;-70
2022/09/22 06:33:28;;;;;;;19.50;7.68;;;;;;;6.16;100.00;102320.72;5061938;28;20062;-71
2022/09/22 06:35:56;;;;;;;17.67;8.07;;;;;;;6.37;100.00;102325.53;5042055;28;20071;-70
2022/09/22 06:38:21;;;;;;;13.30;8.00;;;;;;;6.82;100.00;102321.88;5062354;28;20491;-69
2022/09/22 06:40:47;;;;;;;19.83;8.52;;;;;;;7.16;100.00;102321.94;5042035;28;20115;-70
2022/09/22 06:43:19;;;;;;;27.70;9.93;;;;;;;7.62;100.00;102318.94;5062446;28;20147;-71
2022/09/22 06:45:45;;;;;;;;;;;;;;;7.76;100.00;102316.75;5062087;28;20059;-71
2022/09/22 06:48:11;;;;;;;17.65;9.30;;;;;;;7.92;100.00;102316.34;5064028;28;19920;-70
2022/09/22 06:50:39;;;;;;;34.75;10.52;;;;;;;8.74;100.00;102316.53;5062189;28;20703;-71
2022/09/22 06:53:07;;;;;;;28.40;11.43;;;;;;;9.12;100.00;102318.84;5039134;28;20029;-71
2022/09/22 06:55:34;;;;;;;17.35;11.73;;;;;;;9.66;100.00;102312.53;5039589;28;20041;-71
2022/09/22 06:58:01;;;;;;;17.13;11.15;;;;;;;9.68;100.00;102306.22;5031301;28;20040;-70
2022/09/22 07:00:31;;;;;;;18.63;11.18;;;;;;;10.23;100.00;102304.16;5040359;28;20110;-71
2022/09/22 07:03:16;;;;;;;16.17;9.45;;;;;;;10.74;100.00;102300.38;5059615;28;20044;-71
2022/09/22 07:06:09;;;;;;;12.27;8.75;;;;;;;10.54;100.00;102311.88;5061680;28;20040;-71
2022/09/22 07:08:37;;;;;;;19.08;10.20;;;;;;;10.95;98.34;102301.34;5055165;28;20037;-71
2022/09/22 07:11:07;;;;;;;18.13;9.45;;;;;;;11.54;96.01;102294.34;5058072;28;20080;-71
2022/09/22 07:13:41;;;;;;;32.03;10.82;;;;;;;11.73;96.26;102303.28;5060540;28;20038;-69
2022/09/22 07:16:12;;;;;;;15.30;9.95;;;;;;;12.29;92.27;102297.16;5031072;28;20047;-71
2022/09/22 07:18:39;;;;;;;16.27;10.63;;;;;;;12.55;90.77;102305.75;5060245;28;20047;-69
2022/09/22 07:21:11;;;;;;;21.48;10.57;;;;;;;12.80;88.85;102294.72;5054986;28;20045;-71
2022/09/22 07:23:37;;;;;;;17.67;10.70;;;;;;;12.94;89.19;102286.88;5055720;28;20051;-72
2022/09/22 07:26:05;;;;;;;14.73;11.20;;;;;;;13.16;88.98;102295.56;5060056;28;20208;-71
2022/09/22 07:28:33;;;;;;;14.75;10.02;;;;;;;13.33;89.23;102293.88;5060872;28;20054;-71
2022/09/22 07:31:09;;;;;;;16.13;10.00;;;;;;;13.29;87.88;102300.31;5061282;28;20036;-70
2022/09/22 07:33:36;;;;;;;17.58;9.98;;;;;;;13.00;92.11;102299.94;5060059;28;20168;-69
2022/09/22 07:36:09;;;;;;;18.55;10.52;;;;;;;12.61;96.16;102298.31;5060431;28;20089;-71
2022/09/22 07:38:39;;;;;;;15.25;10.98;;;;;;;13.31;92.73;102298.47;5060707;28;20102;-70
2022/09/22 07:41:08;;;;;;;19.08;10.85;;;;;;;13.44;92.84;102307.56;5056223;28;20593;-69
2022/09/22 07:43:34;;;;;;;15.10;9.82;;;;;;;13.34;92.40;102295.59;5053949;28;20049;-70
2022/09/22 07:46:00;;;;;;;13.77;9.20;;;;;;;13.76;90.31;102289.81;5057363;28;20067;-69
2022/09/22 07:48:40;;;;;;;14.60;9.25;;;;;;;13.93;86.97;102279.03;5060767;28;20029;-69
2022/09/22 07:51:07;;;;;;;14.90;9.73;;;;;;;14.11;89.69;102290.59;5039972;28;20052;-69
2022/09/22 07:53:34;;;;;;;14.90;8.68;;;;;;;14.15;86.63;102284.06;5047594;28;20033;-70
2022/09/22 07:56:11;;;;;;;15.65;8.80;;;;;;;14.47;88.23;102282.31;5038233;28;20046;-70
2022/09/22 07:58:46;;;;;;;16.05;9.27;;;;;;;14.49;88.50;102283.09;5038765;28;20461;-69
2022/09/22 08:01:13;;;;;;;13.52;8.93;;;;;;;14.17;91.04;102290.22;5050418;28;20036;-71
2022/09/22 08:03:39;;;;;;;14.57;9.40;;;;;;;14.69;89.15;102281.09;5056698;28;20044;-69
2022/09/22 08:06:12;;;;;;;19.30;9.82;;;;;;;13.84;92.25;102282.19;5056787;28;20032;-70
2022/09/22 08:08:43;;;;;;;12.23;8.43;;;;;;;13.89;90.39;102280.13;5060872;28;20123;-69
2022/09/22 08:11:14;;;;;;;18.63;9.77;;;;;;;13.77;91.35;102277.28;5055914;28;20045;-70
2022/09/22 08:13:41;;;;;;;20.73;9.50;;;;;;;13.33;96.56;102291.19;5059115;28;21048;-70
2022/09/22 08:16:09;;;;;;;17.42;9.52;;;;;;;13.66;95.23;102284.06;5059394;28;20041;-69
2022/09/22 08:18:35;;;;;;;14.32;9.43;;;;;;;14.18;92.09;102275.88;5060344;28;20552;-70
2022/09/22 08:21:01;;;;;;;15.38;8.27;;;;;;;13.30;94.57;102291.34;5057524;28;20079;-70
2022/09/22 08:23:32;;;;;;;14.48;8.93;;;;;;;13.06;95.29;102285.41;5059487;28;20025;-67
2022/09/22 08:26:05;;;;;;;17.25;9.32;;;;;;;13.21;97.93;102279.28;5055421;28;20056;-70
2022/09/22 08:28:32;;;;;;;19.95;10.02;;;;;;;13.29;99.44;102282.44;5055842;28;20127;-70
2022/09/22 08:30:58;;;;;;;15.52;9.63;;;;;;;13.59;99.48;102274.59;5032256;28;20045;-69
2022/09/22 08:33:25;;;;;;;18.92;10.90;;;;;;;13.32;98.65;102274.25;5053920;28;20344;-69
2022/09/22 08:35:55;;;;;;;15.85;9.50;;;;;;;13.99;95.37;102275.13;5058748;28;20046;-70
2022/09/22 08:38:22;;;;;;;17.58;10.20;;;;;;;13.93;95.10;102270.13;5038572;28;20047;-69
2022/09/22 08:41:14;;;;;;;15.32;9.45;;;;;;;14.23;93.58;102279.16;5058057;28;20037;-69
2022/09/22 08:43:46;;;;;;;15.73;9.75;;;;;;;14.10;93.27;102275.41;5041084;28;20162;-70
2022/09/22 08:46:13;;;;;;;14.70;9.15;;;;;;;14.02;94.24;102272.31;5059390;28;20076;-68
2022/09/22 08:51:53;;;;;;;16.65;9.20;;;;;;;14.28;90.02;102270.00;5059717;28;20075;-70
2022/09/22 08:54:27;;;;;;;17.48;9.18;;;;;;;14.09;91.63;102271.00;5056521;28;20044;-69
2022/09/22 08:57:26;;;;;;;12.65;8.30;;;;;;;14.28;89.29;102265.47;5032857;28;20111;-69
2022/09/22 09:00:05;;;;;;;12.77;8.27;;;;;;;14.40;90.91;102266.59;5032449;28;20049;-69
2022/09/22 09:02:40;;;;;;;18.85;10.40;;;;;;;14.70;90.09;102269.38;5040371;28;20048;-70
2022/09/22 09:05:44;;;;;;;15.20;7.97;;;;;;;15.13;87.12;102267.72;5036702;28;20032;-69
2022/09/22 09:08:18;;;;;;;11.68;7.95;;;;;;;15.54;83.95;102269.72;5046795;28;20048;-68
2022/09/22 09:10:56;;;;;;;9.80;7.78;;;;;;;15.22;89.50;102269.88;5056666;28;20051;-70
2022/09/22 09:13:42;;;;;;;18.67;8.55;;;;;;;15.29;87.02;102265.84;5058665;28;20032;-69
2022/09/22 09:16:24;;;;;;;17.70;8.73;;;;;;;15.23;87.55;102268.06;5027147;28;20037;-69
2022/09/22 09:19:05;;;;;;;18.57;9.00;;;;;;;15.50;83.17;102265.50;5057784;28;20766;-69
2022/09/22 09:21:37;;;;;;;15.45;7.88;;;;;;;15.82;84.53;102260.00;5057745;28;20049;-68
2022/09/22 09:24:09;;;;;;;18.90;8.98;;;;;;;16.03;84.04;102258.63;5056537;28;20483;-70
2022/09/22 09:26:34;;;;;;;12.73;8.23;;;;;;;15.93;81.95;102260.19;5049335;28;20044;-68
2022/09/22 09:29:05;;;;;;;13.23;8.10;;;;;;;15.91;81.74;102259.41;5052507;28;20118;-69
2022/09/22 09:31:47;;;;;;;10.40;6.22;;;;;;;15.68;83.30;102260.84;5056635;28;20047;-70
2022/09/22 09:34:18;;;;;;;12.57;5.70;;;;;;;15.52;80.21;102255.53;5052112;28;20097;-68
2022/09/22 09:36:51;;;;;;;11.30;6.25;;;;;;;15.71;80.90;102263.34;5053265;28;20120;-69
2022/09/22 09:39:30;;;;;;;8.65;6.20;;;;;;;15.90;80.12;102257.69;5059018;28;20038;-67
2022/09/22 09:41:57;;;;;;;10.90;7.35;;;;;;;16.03;79.48;102258.63;5053664;28;20037;-68
2022/09/22 09:44:29;;;;;;;11.20;6.35;;;;;;;15.83;77.08;102251.81;5053335;28;20051;-68
2022/09/22 09:47:03;;;;;;;13.32;5.90;;;;;;;15.78;75.25;102252.13;5041204;28;20044;-68
2022/09/22 09:49:29;;;;;;;7.00;4.68;;;;;;;15.78;74.88;102249.44;5039135;28;20119;-69
2022/09/22 09:51:59;;;;;;;10.05;5.35;;;;;;;15.98;74.16;102250.84;5057914;28;20217;-69
2022/09/22 09:54:26;;;;;;;11.88;5.65;;;;;;;16.16;76.82;102250.63;5054824;28;20775;-68
2022/09/22 09:57:12;;;;;;;8.88;5.32;;;;;;;16.23;80.41;102249.28;5056841;28;20064;-68
2022/09/22 10:02:58;;;;;;;10.20;5.07;;;;;;;16.42;74.66;102251.66;5061183;28;20049;-68
2022/09/22 10:05:26;;;;;;;11.75;5.15;;;;;;;16.13;74.05;102238.25;5057027;28;20097;-69
2022/09/22 10:08:00;;;;;;;15.20;5.70;;;;;;;16.01;73.27;102247.97;5062305;28;20128;-70
2022/09/22 10:10:28;;;;;;;6.70;4.05;;;;;;;16.19;74.45;102250.44;5054143;28;20047;-67
2022/09/22 10:13:03;;;;;;;7.82;4.13;;;;;;;16.86;77.70;102254.09;5062014;28;20042;-70
2022/09/22 10:15:31;;;;;;;9.73;3.25;;;;;;;16.29;69.62;102247.06;5060755;28;20129;-68
2022/09/22 10:17:56;;;;;;;10.88;4.80;;;;;;;16.56;73.74;102243.50;5042190;28;20041;-68
2022/09/22 10:20:30;;;;;;;6.93;4.40;;;;;;;16.77;71.86;102243.97;5040226;28;20134;-69
2022/09/22 10:23:15;;;;;;;4.88;3.58;;;;;;;16.67;68.19;102240.13;5060576;28;20053;-69
2022/09/22 10:25:41;;;;;;;7.53;3.75;;;;;;;16.85;72.73;102238.03;5060258;28;20127;-70
2022/09/22 10:28:18;;;;;;;17.13;4.30;;;;;;;16.70;72.96;102240.75;5060434;28;20067;-70
2022/09/22 10:30:59;;;;;;;9.70;4.57;;;;;;;16.63;70.04;102243.97;5061494;28;20044;-70
2022/09/22 10:33:24;;;;;;;10.07;4.55;;;;;;;16.97;70.45;102235.41;5052157;28;20037;-69
2022/09/22 10:36:11;;;;;;;17.10;5.00;;;;;;;16.93;67.47;102222.22;5061333;28;20852;-69
2022/09/22 10:38:43;;;;;;;14.20;4.00;;;;;;;16.55;68.25;102231.88;5051286;28;20052;-68
2022/09/22 10:41:27;;;;;;;10.35;4.55;;;;;;;17.10;69.14;102216.53;5061502;28;20036;-70
2022/09/22 10:43:59;;;;;;;6.75;4.57;;;;;;;17.09;68.18;102214.81;5058934;28;20105;-68
2022/09/22 10:46:56;;;;;;;7.00;3.55;;;;;;;17.32;68.22;102214.09;5061037;28;20033;-68
2022/09/22 10:49:37;;;;;;;11.52;3.90;;;;;;;17.67;65.74;102204.44;5038203;28;20044;-70
2022/09/22 10:52:07;;;;;;;5.32;3.63;;;;;;;17.58;63.83;102204.16;5037191;28;20028;-68
2022/09/22 10:54:54;;;;;;;7.18;3.40;;;;;;;17.32;63.94;102197.06;5035499;28;20207;-70
2022/09/22 10:57:36;;;;;;;8.95;3.03;;;;;;;17.70;65.91;102201.53;5059788;28;20059;-69
2022/09/22 11:00:08;;;;;;;5.95;3.15;;;;;;;17.69;64.81;102199.81;5059029;28;20123;-70
2022/09/22 11:02:52;;;;;;;;;;;;;;;17.66;66.23;102200.91;5060931;28;20048;-70
2022/09/22 11:14:19;;;;;;;4.45;2.67;;;;;;;17.58;63.00;102192.50;5054150;28;20051;-69
2022/09/22 11:17:22;;;;;;;6.80;2.78;;;;;;;17.40;63.65;102189.25;5054490;28;20534;-69
2022/09/22 11:19:56;;;;;;;9.95;3.10;;;;;;;17.74;62.95;102182.38;5054645;28;20047;-69
2022/09/22 11:22:33;;;;;;;9.50;3.38;;;;;;;17.73;65.40;102194.13;5060479;28;20547;-68
2022/09/22 11:25:25;;;;;;;6.53;3.22;;;;;;;17.74;64.01;102181.50;5053915;28;20028;-70
2022/09/22 11:28:04;;;;;;;10.10;3.87;;;;;;;17.97;64.17;102185.22;5054508;28;20044;-70
2022/09/22 11:30:37;;;;;;;6.82;3.17;;;;;;;17.59;62.55;102181.59;5040765;28;20040;-68
2022/09/22 11:33:33;;;;;;;5.97;3.80;;;;;;;17.68;62.09;102174.69;5060281;28;20054;-69
2022/09/22 11:36:08;;;;;;;8.98;2.92;;;;;;;17.81;59.78;102180.06;5055760;28;20046;-70
2022/09/22 11:39:01;;;;;;;7.63;3.13;;;;;;;18.04;63.18;102175.72;5059189;28;20029;-70
2022/09/22 11:41:37;;;;;;;8.00;2.85;;;;;;;17.67;59.30;102180.16;5058806;28;20040;-69
2022/09/22 11:44:34;;;;;;;4.18;2.60;;;;;;;18.34;59.45;102169.88;5060152;28;20040;-70
2022/09/22 11:47:21;;;;;;;7.45;2.22;;;;;;;18.48;59.64;102168.84;5055419;28;20040;-69
2022/09/22 11:50:16;;;;;;;6.35;3.08;;;;;;;18.44;56.36;102162.78;5059522;28;20623;-69
2022/09/22 11:52:56;;;;;;;7.00;3.13;;;;;;;18.50;58.79;102161.47;5058019;28;20043;-70
2022/09/22 11:55:51;;;;;;;5.15;2.53;;;;;;;18.87;55.63;102152.28;5042601;28;20075;-69
2022/09/22 11:58:24;;;;;;;4.30;2.97;;;;;;;18.83;55.10;102148.13;5031145;28;20052;-69